Time;durP1;ratioP1;P1;durP2;ratioP2;P2;SDS_P1;SDS_P2;PMS_P1;PMS_P2;Temp;Humidity;BMP_temperature;BMP_pressure;BME280_temperature;BME280_humidity;BME280_pressure;Samples;Min_cycle;Max_cycle;Signal;HPM_P1;HPM_P2
2024/01/18 00:02:23;;;;;;;30.40;23.98;;;5.00;99.90;;;;;;5119552;27;20117;-77
2024/01/18 00:04:48;;;;;;;35.17;27.58;;;5.10;99.90;;;;;;5111537;28;20016;-77
2024/01/18 00:07:14;;;;;;;45.50;29.85;;;5.10;99.90;;;;;;5117083;27;20031;-77
2024/01/18 00:09:39;;;;;;;37.03;27.40;;;5.10;99.90;;;;;;5151406;27;20032;-77
2024/01/18 00:12:05;;;;;;;42.20;29.98;;;5.10;99.90;;;;;;5118788;28;20051;-77
2024/01/18 00:14:31;;;;;;;40.90;28.98;;;5.10;99.90;;;;;;5114223;28;20054;-77
2024/01/18 00:16:57;;;;;;;36.50;28.75;;;5.20;99.90;;;;;;5111731;28;20044;-77
2024/01/18 00:19:22;;;;;;;45.22;32.80;;;5.10;99.90;;;;;;5112829;28;20245;-77
2024/01/18 00:21:48;;;;;;;40.67;29.17;;;5.10;99.90;;;;;;5119367;28;20066;-77
2024/01/18 00:24:16;;;;;;;59.13;35.53;;;5.10;99.90;;;;;;5113478;28;20027;-77
2024/01/18 00:26:45;;;;;;;41.65;27.15;;;5.10;99.90;;;;;;5115062;28;20118;-77
2024/01/18 00:29:11;;;;;;;25.40;20.20;;;5.10;99.90;;;;;;5117966;28;20032;-77
2024/01/18 00:31:36;;;;;;;19.95;17.83;;;5.10;99.90;;;;;;5113120;28;20020;-77
2024/01/18 00:34:02;;;;;;;22.75;18.98;;;5.20;99.90;;;;;;5114126;27;20103;-77
2024/01/18 00:36:28;;;;;;;20.00;17.45;;;5.20;99.90;;;;;;5112535;28;20102;-77
2024/01/18 00:38:53;;;;;;;17.40;15.48;;;5.20;99.90;;;;;;5115911;27;20050;-77
2024/01/18 00:41:20;;;;;;;18.67;16.67;;;5.20;99.90;;;;;;5122651;27;20027;-77
2024/01/18 00:43:47;;;;;;;85.78;76.50;;;5.20;99.90;;;;;;5117451;28;20023;-77
2024/01/18 00:46:13;;;;;;;213.05;186.25;;;5.20;99.90;;;;;;5123065;28;20530;-77
2024/01/18 00:48:38;;;;;;;258.25;230.30;;;5.20;99.90;;;;;;5114472;27;20118;-77
2024/01/18 00:51:04;;;;;;;53.80;45.83;;;5.20;99.90;;;;;;5122263;27;20034;-77
2024/01/18 00:53:30;;;;;;;17.05;15.35;;;5.20;99.90;;;;;;5114113;27;20492;-77
2024/01/18 00:55:56;;;;;;;10.60;9.75;;;5.20;99.90;;;;;;5123308;27;20072;-77
2024/01/18 00:58:21;;;;;;;9.50;8.70;;;5.20;99.90;;;;;;5119469;27;20486;-77
2024/01/18 01:00:50;;;;;;;10.13;9.15;;;5.20;99.90;;;;;;5125685;27;20505;-77
2024/01/18 01:03:16;;;;;;;11.27;10.13;;;5.20;99.90;;;;;;5124092;27;20031;-77
2024/01/18 01:05:42;;;;;;;14.95;11.93;;;5.20;99.90;;;;;;5123658;27;20505;-77
2024/01/18 01:08:07;;;;;;;13.38;10.93;;;5.20;99.90;;;;;;5117517;27;20032;-77
2024/01/18 01:10:33;;;;;;;13.75;11.40;;;5.20;99.90;;;;;;5126670;27;20497;-77
2024/01/18 01:12:59;;;;;;;13.75;12.30;;;5.20;99.90;;;;;;5150474;27;20020;-77
2024/01/18 01:15:24;;;;;;;16.85;13.30;;;5.20;99.90;;;;;;5119079;27;20027;-77
2024/01/18 01:17:50;;;;;;;16.67;14.23;;;5.20;99.90;;;;;;5118937;27;20079;-77
2024/01/18 01:20:16;;;;;;;18.35;16.35;;;5.20;99.90;;;;;;5123064;27;20031;-77
2024/01/18 01:22:41;;;;;;;30.77;21.13;;;5.20;99.90;;;;;;5119458;27;20031;-77
2024/01/18 01:25:07;;;;;;;21.02;18.13;;;5.20;99.90;;;;;;5126241;27;20031;-77
2024/01/18 01:27:33;;;;;;;35.47;23.02;;;5.10;99.90;;;;;;5116842;27;20043;-77
2024/01/18 01:30:02;;;;;;;26.20;21.58;;;5.00;99.90;;;;;;5122728;27;20509;-77
2024/01/18 01:32:28;;;;;;;28.40;23.30;;;5.00;99.90;;;;;;5121175;27;20024;-77
2024/01/18 01:34:53;;;;;;;21.90;19.70;;;5.00;99.90;;;;;;5122415;27;20030;-77
2024/01/18 01:37:19;;;;;;;22.85;20.45;;;5.00;99.90;;;;;;5120253;27;20053;-77
2024/01/18 01:39:46;;;;;;;22.80;20.50;;;5.00;99.90;;;;;;5125172;27;20034;-77
2024/01/18 01:42:11;;;;;;;19.90;17.88;;;5.00;99.90;;;;;;5119506;27;20047;-77
2024/01/18 01:44:37;;;;;;;19.60;17.63;;;5.00;99.90;;;;;;5121486;27;20063;-77
2024/01/18 01:47:03;;;;;;;18.90;17.08;;;5.10;99.90;;;;;;5122803;27;20038;-77
2024/01/18 01:49:28;;;;;;;18.20;16.65;;;5.00;99.90;;;;;;5155206;27;20048;-77
2024/01/18 01:51:55;;;;;;;16.15;14.85;;;5.10;99.90;;;;;;5120152;27;20466;-77
2024/01/18 01:54:21;;;;;;;15.38;14.07;;;5.10;99.90;;;;;;5118124;27;20027;-77
2024/01/18 01:56:54;;;;;;;15.38;14.05;;;5.10;99.90;;;;;;5122348;27;20042;-77
2024/01/18 01:59:20;;;;;;;13.75;12.48;;;5.10;99.90;;;;;;5122766;27;20024;-77
2024/01/18 02:01:46;;;;;;;12.80;11.80;;;5.10;99.90;;;;;;5122606;27;20090;-77
2024/01/18 02:04:13;;;;;;;12.20;11.15;;;5.10;99.90;;;;;;5117260;27;20024;-77
2024/01/18 02:06:40;;;;;;;12.20;11.18;;;5.10;99.90;;;;;;5122815;27;20027;-77
2024/01/18 02:09:07;;;;;;;9.40;8.70;;;5.10;99.90;;;;;;5122036;27;20096;-77
2024/01/18 02:11:33;;;;;;;9.10;8.45;;;5.20;99.90;;;;;;5123505;27;20064;-77
2024/01/18 02:13:58;;;;;;;9.15;8.45;;;5.20;99.90;;;;;;5110324;28;20024;-77
2024/01/18 02:16:24;;;;;;;9.23;8.52;;;5.20;99.90;;;;;;5120200;27;20050;-77
2024/01/18 02:18:50;;;;;;;10.88;9.90;;;5.20;99.90;;;;;;5119123;27;20502;-77
2024/01/18 02:21:15;;;;;;;12.10;11.10;;;5.20;99.90;;;;;;5122256;27;20024;-77
2024/01/18 02:23:44;;;;;;;14.88;13.55;;;5.20;99.90;;;;;;5118598;27;20389;-77
2024/01/18 02:26:10;;;;;;;18.77;16.92;;;5.10;99.90;;;;;;5121333;27;20114;-77
2024/01/18 02:28:35;;;;;;;23.73;21.20;;;5.10;99.90;;;;;;5114893;27;20431;-77
2024/01/18 02:31:01;;;;;;;27.75;22.30;;;5.00;99.90;;;;;;5121467;27;20391;-77
2024/01/18 02:33:27;;;;;;;19.15;17.42;;;4.90;99.90;;;;;;5117697;27;20072;-77
2024/01/18 02:35:53;;;;;;;17.00;15.45;;;4.90;99.90;;;;;;5124240;27;20031;-77
2024/01/18 02:38:19;;;;;;;19.60;17.60;;;5.00;99.90;;;;;;5122570;27;20051;-77
2024/01/18 02:40:45;;;;;;;14.60;13.32;;;5.00;99.90;;;;;;5118081;27;20035;-77
2024/01/18 02:43:10;;;;;;;12.32;11.32;;;5.10;99.90;;;;;;5118040;27;20028;-77
2024/01/18 02:45:36;;;;;;;13.15;12.05;;;5.10;99.90;;;;;;5126339;27;20052;-77
2024/01/18 02:48:03;;;;;;;14.13;12.98;;;5.20;99.90;;;;;;5118008;27;20595;-77
2024/01/18 02:50:29;;;;;;;14.73;13.52;;;5.20;99.90;;;;;;5123800;27;20031;-77
2024/01/18 02:52:55;;;;;;;17.65;16.05;;;5.20;99.90;;;;;;5111413;27;20079;-77
2024/01/18 02:55:21;;;;;;;15.90;14.50;;;5.20;99.90;;;;;;5115945;27;20100;-77
2024/01/18 02:57:46;;;;;;;14.82;13.52;;;5.20;99.90;;;;;;5115518;27;20500;-77
2024/01/18 03:00:12;;;;;;;14.15;12.95;;;5.20;99.90;;;;;;5111415;28;20081;-77
2024/01/18 03:02:38;;;;;;;12.80;11.80;;;5.20;99.90;;;;;;5115610;27;20097;-77
2024/01/18 03:05:05;;;;;;;12.50;11.50;;;5.20;99.90;;;;;;5121026;27;20104;-77
2024/01/18 03:07:31;;;;;;;12.55;11.55;;;5.20;99.90;;;;;;5116594;27;20480;-77
2024/01/18 03:09:57;;;;;;;11.23;10.43;;;5.20;99.90;;;;;;5118574;27;20031;-77
2024/01/18 03:12:23;;;;;;;13.02;11.82;;;5.20;99.90;;;;;;5119949;27;20179;-77
2024/01/18 03:14:48;;;;;;;13.00;11.88;;;5.20;99.90;;;;;;5120488;27;20063;-77
2024/01/18 03:17:14;;;;;;;12.77;11.73;;;5.20;99.90;;;;;;5112447;27;20079;-77
2024/01/18 03:19:39;;;;;;;11.88;10.90;;;5.20;99.90;;;;;;5116761;27;20060;-77
2024/01/18 03:22:05;;;;;;;12.68;11.60;;;5.30;99.90;;;;;;5116141;27;20110;-77
2024/01/18 03:24:31;;;;;;;11.93;11.02;;;5.20;99.90;;;;;;5117653;27;20059;-77
2024/01/18 03:26:56;;;;;;;14.00;12.80;;;5.20;99.90;;;;;;5112584;27;20027;-77
2024/01/18 03:29:22;;;;;;;10.65;9.82;;;5.20;99.90;;;;;;5150046;27;20058;-77
2024/01/18 03:31:51;;;;;;;11.52;10.63;;;5.20;99.90;;;;;;5120804;27;20032;-77
2024/01/18 03:34:16;;;;;;;10.52;9.70;;;5.20;99.90;;;;;;5119903;27;20023;-77
2024/01/18 03:36:43;;;;;;;11.02;10.25;;;5.30;99.90;;;;;;5120352;27;20043;-77
2024/01/18 03:39:09;;;;;;;9.20;8.50;;;5.30;99.90;;;;;;5116163;27;20493;-77
2024/01/18 03:41:34;;;;;;;11.13;10.23;;;5.30;99.90;;;;;;5127631;27;20027;-77
2024/01/18 03:44:00;;;;;;;9.50;8.70;;;5.30;99.90;;;;;;5124527;27;20114;-77
2024/01/18 03:46:26;;;;;;;7.82;7.32;;;5.30;99.90;;;;;;5120802;27;20034;-77
2024/01/18 03:48:51;;;;;;;9.60;8.90;;;5.30;99.90;;;;;;5123801;27;20023;-77
2024/01/18 03:51:17;;;;;;;9.80;9.00;;;5.30;99.90;;;;;;5119847;27;20059;-77
2024/01/18 03:53:43;;;;;;;8.93;8.32;;;5.30;99.90;;;;;;5114327;27;20035;-77
2024/01/18 03:56:12;;;;;;;9.50;8.73;;;5.30;99.90;;;;;;5119999;27;20031;-77
2024/01/18 03:58:38;;;;;;;9.52;8.77;;;5.30;99.90;;;;;;5116708;27;20016;-77
2024/01/18 04:01:04;;;;;;;8.95;8.13;;;5.30;99.90;;;;;;5126160;27;20015;-77
2024/01/18 04:03:30;;;;;;;8.32;7.72;;;5.30;99.90;;;;;;5115939;27;20478;-77
2024/01/18 04:05:56;;;;;;;8.68;8.00;;;5.30;99.90;;;;;;5122289;27;20019;-77
2024/01/18 04:08:21;;;;;;;7.85;7.35;;;5.30;99.90;;;;;;5106523;28;20035;-77
2024/01/18 04:10:47;;;;;;;7.43;6.93;;;5.30;99.90;;;;;;5118340;28;20533;-77
2024/01/18 04:13:15;;;;;;;8.45;7.85;;;5.30;99.90;;;;;;5118045;28;20023;-77
2024/01/18 04:15:41;;;;;;;9.10;8.40;;;5.30;99.90;;;;;;5120081;27;20028;-77
2024/01/18 04:18:07;;;;;;;10.00;9.20;;;5.30;99.90;;;;;;5116807;28;20054;-77
2024/01/18 04:20:32;;;;;;;9.40;8.70;;;5.30;99.90;;;;;;5118622;27;20110;-77
2024/01/18 04:22:58;;;;;;;8.07;7.47;;;5.40;99.90;;;;;;5116561;27;20035;-77
2024/01/18 04:25:24;;;;;;;7.75;7.25;;;5.40;99.90;;;;;;5123124;27;20389;-77
2024/01/18 04:27:50;;;;;;;7.80;7.30;;;5.30;99.90;;;;;;5118718;27;20064;-77
2024/01/18 04:30:15;;;;;;;7.50;7.00;;;5.30;99.90;;;;;;5124520;27;20099;-77
2024/01/18 04:32:41;;;;;;;7.50;7.00;;;5.40;99.90;;;;;;5120972;27;20081;-77
2024/01/18 04:35:07;;;;;;;9.18;8.38;;;5.40;99.90;;;;;;5122473;27;20591;-77
2024/01/18 04:37:33;;;;;;;9.57;8.77;;;5.40;99.90;;;;;;5118282;27;20430;-77
2024/01/18 04:39:59;;;;;;;8.93;8.23;;;5.30;99.90;;;;;;5126757;27;20554;-77
2024/01/18 04:42:26;;;;;;;8.85;8.07;;;5.40;99.90;;;;;;5120329;27;20048;-77
2024/01/18 04:44:51;;;;;;;10.18;9.32;;;5.40;99.90;;;;;;5128304;27;20397;-77
2024/01/18 04:47:17;;;;;;;9.27;8.57;;;5.40;99.90;;;;;;5121872;27;20284;-77
2024/01/18 04:49:43;;;;;;;9.38;8.68;;;5.40;99.90;;;;;;5123904;27;20098;-77
2024/01/18 04:52:08;;;;;;;9.77;8.98;;;5.40;99.90;;;;;;5123084;27;20022;-77
2024/01/18 04:54:34;;;;;;;9.88;9.07;;;5.40;99.90;;;;;;5123489;27;20505;-77
2024/01/18 04:57:00;;;;;;;13.63;12.30;;;5.40;99.90;;;;;;5119904;27;20475;-77
2024/01/18 04:59:26;;;;;;;23.60;14.80;;;5.30;99.90;;;;;;5121550;27;20030;-77
2024/01/18 05:01:51;;;;;;;30.85;15.82;;;5.30;99.90;;;;;;5123970;27;20371;-77
2024/01/18 05:04:18;;;;;;;42.05;20.50;;;5.30;99.90;;;;;;5127454;27;20027;-77
2024/01/18 05:06:44;;;;;;;46.72;22.77;;;5.30;99.90;;;;;;5119421;27;20031;-78
2024/01/18 05:09:10;;;;;;;53.50;25.73;;;5.30;99.90;;;;;;5121362;27;20025;-77
2024/01/18 05:11:35;;;;;;;35.63;20.73;;;5.40;99.90;;;;;;5122751;27;20073;-74
2024/01/18 05:14:01;;;;;;;28.98;18.63;;;5.40;99.90;;;;;;5135620;27;20024;-74
2024/01/18 05:16:27;;;;;;;20.60;13.85;;;5.40;99.90;;;;;;5125440;27;20097;-74
2024/01/18 05:18:53;;;;;;;12.68;11.38;;;5.40;99.90;;;;;;5120678;27;20045;-77
2024/01/18 05:21:21;;;;;;;21.13;16.40;;;5.40;99.90;;;;;;5159247;27;20023;-77
2024/01/18 05:23:49;;;;;;;24.40;16.58;;;5.40;99.90;;;;;;5118013;27;20023;-77
2024/01/18 05:26:14;;;;;;;16.90;13.50;;;5.30;99.90;;;;;;5122450;27;20024;-77
2024/01/18 05:28:40;;;;;;;13.63;12.30;;;5.30;99.90;;;;;;5118042;27;20531;-77
2024/01/18 05:31:06;;;;;;;10.02;9.18;;;5.40;99.90;;;;;;5126215;27;20116;-77
2024/01/18 05:33:31;;;;;;;10.95;10.05;;;5.30;99.90;;;;;;5117380;27;20027;-77
2024/01/18 05:35:57;;;;;;;9.10;8.43;;;5.30;99.90;;;;;;5121767;27;20054;-77
2024/01/18 05:38:23;;;;;;;9.98;9.18;;;5.40;99.90;;;;;;5120165;27;20035;-77
2024/01/18 05:40:49;;;;;;;10.50;9.48;;;5.40;99.90;;;;;;5122756;27;20174;-77
2024/01/18 05:43:14;;;;;;;9.68;8.88;;;5.40;99.90;;;;;;5118888;27;20107;-74
2024/01/18 05:45:40;;;;;;;8.10;7.60;;;5.40;99.90;;;;;;5124655;27;20593;-74
2024/01/18 05:48:06;;;;;;;8.10;7.55;;;5.40;99.90;;;;;;5119353;27;20063;-74
2024/01/18 05:50:32;;;;;;;7.70;7.10;;;5.40;99.90;;;;;;5122855;27;20076;-74
2024/01/18 05:52:58;;;;;;;8.48;7.65;;;5.40;99.90;;;;;;5115340;27;20387;-77
2024/01/18 05:55:24;;;;;;;7.47;6.97;;;5.40;99.90;;;;;;5122696;27;20622;-77
2024/01/18 05:57:50;;;;;;;7.60;7.10;;;5.40;99.90;;;;;;5123335;27;20106;-77
2024/01/18 06:00:16;;;;;;;6.85;6.32;;;5.40;99.90;;;;;;5121404;27;20035;-77
2024/01/18 06:02:42;;;;;;;7.93;7.28;;;5.40;99.90;;;;;;5119948;27;20490;-77
2024/01/18 06:05:08;;;;;;;7.57;7.07;;;5.40;99.90;;;;;;5115257;27;20451;-77
2024/01/18 06:07:33;;;;;;;7.63;7.07;;;5.40;99.90;;;;;;5124441;27;20023;-77
2024/01/18 06:10:03;;;;;;;8.55;7.50;;;5.40;99.90;;;;;;5121990;27;20475;-77
2024/01/18 06:12:29;;;;;;;9.15;8.40;;;5.30;99.90;;;;;;5118990;27;20054;-78
2024/01/18 06:14:54;;;;;;;10.65;9.63;;;5.30;99.90;;;;;;5125191;27;20054;-77
2024/01/18 06:17:20;;;;;;;12.48;11.15;;;5.30;99.90;;;;;;5113458;27;20084;-77
2024/01/18 06:19:46;;;;;;;11.30;10.30;;;5.20;99.90;;;;;;5121430;27;20019;-77
2024/01/18 06:22:12;;;;;;;11.52;10.15;;;5.20;99.90;;;;;;5153485;27;20023;-77
2024/01/18 06:24:37;;;;;;;10.75;9.20;;;5.20;99.90;;;;;;5120262;27;20023;-77
2024/01/18 06:27:03;;;;;;;13.55;12.20;;;5.20;99.90;;;;;;5122022;27;20023;-77
2024/01/18 06:29:30;;;;;;;14.38;12.98;;;5.20;99.90;;;;;;5121260;27;20249;-77
2024/01/18 06:31:56;;;;;;;15.32;10.73;;;5.10;99.90;;;;;;5121113;27;20015;-77
2024/01/18 06:34:22;;;;;;;10.38;9.57;;;5.10;99.90;;;;;;5122296;27;20015;-77
2024/01/18 06:36:49;;;;;;;9.50;8.65;;;5.00;99.90;;;;;;5122016;27;20024;-77
2024/01/18 06:39:15;;;;;;;9.18;8.32;;;5.00;99.90;;;;;;5122598;27;20042;-77
2024/01/18 06:41:41;;;;;;;9.55;8.75;;;5.00;99.90;;;;;;5117261;27;20114;-77
2024/01/18 06:44:07;;;;;;;8.25;7.65;;;5.00;99.90;;;;;;5117219;27;20024;-77
2024/01/18 06:46:33;;;;;;;9.85;9.07;;;5.00;99.90;;;;;;5120379;27;20152;-77
2024/01/18 06:49:00;;;;;;;9.43;8.63;;;5.00;99.90;;;;;;5118638;27;20027;-77
2024/01/18 06:51:29;;;;;;;7.55;6.95;;;4.90;99.90;;;;;;5122687;27;20026;-77
2024/01/18 06:53:58;;;;;;;9.32;8.43;;;4.90;99.90;;;;;;5117851;27;20016;-77
2024/01/18 06:56:24;;;;;;;7.35;6.78;;;4.80;99.90;;;;;;5121201;27;20503;-77
2024/01/18 06:58:50;;;;;;;11.15;10.02;;;4.90;99.90;;;;;;5116832;27;20098;-77
2024/01/18 07:01:15;;;;;;;10.50;9.60;;;4.80;99.90;;;;;;5121013;27;20100;-77
2024/01/18 07:03:42;;;;;;;20.48;15.65;;;4.80;99.90;;;;;;5117690;27;20031;-77
2024/01/18 07:06:08;;;;;;;30.63;19.67;;;4.80;99.90;;;;;;5121163;27;20023;-77
2024/01/18 07:08:34;;;;;;;14.90;12.45;;;4.80;99.90;;;;;;5119357;27;20058;-77
2024/01/18 07:11:01;;;;;;;23.60;15.90;;;4.80;99.90;;;;;;5115831;27;20063;-77
2024/01/18 07:13:27;;;;;;;23.52;16.10;;;4.80;99.90;;;;;;5119188;27;20500;-77
2024/01/18 07:15:53;;;;;;;19.45;14.52;;;4.80;99.90;;;;;;5120364;27;20019;-77
2024/01/18 07:18:19;;;;;;;11.60;9.75;;;4.80;99.90;;;;;;5115411;27;20028;-77
2024/01/18 07:20:44;;;;;;;16.65;13.75;;;4.80;99.90;;;;;;5124380;27;20382;-77
2024/01/18 07:23:10;;;;;;;25.52;18.13;;;4.80;99.90;;;;;;5115647;27;20023;-77
2024/01/18 07:25:36;;;;;;;19.48;15.10;;;4.90;99.90;;;;;;5120398;27;20060;-77
2024/01/18 07:28:02;;;;;;;14.85;13.25;;;4.80;99.90;;;;;;5116707;27;20064;-77
2024/01/18 07:30:29;;;;;;;13.93;12.30;;;4.80;99.90;;;;;;5120932;27;20028;-77
2024/01/18 07:32:54;;;;;;;13.90;12.50;;;4.80;99.90;;;;;;5110381;27;20030;-77
2024/01/18 07:35:20;;;;;;;17.35;15.73;;;4.80;99.90;;;;;;5123803;27;20023;-77
2024/01/18 07:37:45;;;;;;;15.52;14.02;;;4.80;99.90;;;;;;5116190;27;20028;-77
2024/01/18 07:40:11;;;;;;;21.08;18.65;;;4.80;99.90;;;;;;5119630;27;20030;-77
2024/01/18 07:42:37;;;;;;;22.67;19.35;;;4.80;99.90;;;;;;5117590;27;20100;-77
2024/01/18 07:45:03;;;;;;;22.85;17.38;;;4.80;99.90;;;;;;5119991;27;20052;-77
2024/01/18 07:47:28;;;;;;;20.20;18.30;;;4.90;99.90;;;;;;5116605;27;20157;-77
2024/01/18 07:49:54;;;;;;;26.42;23.75;;;4.80;99.90;;;;;;5123770;27;20057;-77
2024/01/18 07:52:20;;;;;;;22.23;19.92;;;4.90;99.90;;;;;;5116152;27;20039;-77
2024/01/18 07:54:49;;;;;;;25.38;22.80;;;4.90;99.90;;;;;;5116493;27;20030;-77
2024/01/18 07:57:14;;;;;;;24.20;21.70;;;4.80;99.90;;;;;;5149881;27;20030;-77
2024/01/18 07:59:40;;;;;;;23.70;21.40;;;4.80;99.90;;;;;;5110004;27;20016;-77
2024/01/18 08:02:06;;;;;;;22.38;20.20;;;4.80;99.90;;;;;;5118322;27;20506;-77
2024/01/18 08:04:31;;;;;;;21.83;19.77;;;4.80;99.90;;;;;;5116921;28;20072;-77
2024/01/18 08:06:57;;;;;;;22.35;20.13;;;4.80;99.90;;;;;;5119940;27;20027;-77
2024/01/18 08:09:23;;;;;;;27.45;23.98;;;4.80;99.90;;;;;;5120376;27;20683;-77
2024/01/18 08:11:49;;;;;;;26.17;23.58;;;4.80;99.90;;;;;;5119936;27;20032;-77
2024/01/18 08:14:15;;;;;;;25.10;22.40;;;4.80;99.90;;;;;;5115036;28;20068;-77
2024/01/18 08:16:40;;;;;;;25.92;23.02;;;4.80;99.90;;;;;;5114852;27;20772;-77
2024/01/18 08:19:07;;;;;;;31.98;28.55;;;4.80;99.90;;;;;;5119363;28;20047;-77
2024/01/18 08:21:33;;;;;;;28.30;25.48;;;4.80;99.90;;;;;;5114789;28;20390;-77
2024/01/18 08:23:59;;;;;;;25.38;22.75;;;4.90;99.90;;;;;;5115240;28;20448;-77
2024/01/18 08:26:25;;;;;;;28.70;25.60;;;4.90;99.90;;;;;;5113850;28;20028;-76
2024/01/18 08:28:50;;;;;;;25.17;22.77;;;5.00;99.90;;;;;;5112953;28;20500;-76
2024/01/18 08:31:16;;;;;;;29.27;26.27;;;5.00;99.90;;;;;;5115997;28;20269;-76
2024/01/18 08:33:41;;;;;;;34.15;28.30;;;5.00;99.90;;;;;;5111891;27;20158;-76
2024/01/18 08:36:08;;;;;;;44.40;34.33;;;5.00;99.90;;;;;;5115640;28;20058;-76
2024/01/18 08:38:34;;;;;;;35.63;28.98;;;5.00;99.90;;;;;;5105926;28;20028;-77
2024/01/18 08:41:00;;;;;;;32.90;27.88;;;5.10;99.90;;;;;;5115041;27;20031;-76
2024/01/18 08:43:26;;;;;;;35.47;29.30;;;5.10;99.90;;;;;;5109389;28;20035;-76
2024/01/18 08:45:53;;;;;;;29.15;26.02;;;5.10;99.90;;;;;;5116249;28;20574;-76
2024/01/18 08:48:20;;;;;;;32.00;28.48;;;5.20;99.90;;;;;;5112628;27;20027;-76
2024/01/18 08:50:46;;;;;;;30.80;26.83;;;5.10;99.90;;;;;;5115187;27;20020;-77
2024/01/18 08:53:11;;;;;;;30.75;25.05;;;5.20;99.90;;;;;;5115478;28;20031;-77
2024/01/18 08:55:38;;;;;;;25.42;22.90;;;5.20;99.90;;;;;;5115509;28;20024;-77
2024/01/18 08:58:04;;;;;;;28.10;25.15;;;5.20;99.90;;;;;;5110319;28;20054;-76
2024/01/18 09:00:30;;;;;;;25.27;22.80;;;5.20;99.90;;;;;;5115894;28;20410;-76
2024/01/18 09:02:56;;;;;;;22.73;20.63;;;5.30;99.90;;;;;;5107242;28;20030;-77
2024/01/18 09:05:22;;;;;;;26.27;23.65;;;5.30;99.90;;;;;;5113957;27;20027;-76
2024/01/18 09:07:48;;;;;;;28.40;25.48;;;5.40;99.90;;;;;;5108069;28;20065;-76
2024/01/18 09:10:13;;;;;;;27.30;24.38;;;5.40;99.90;;;;;;5108921;27;20457;-76
2024/01/18 09:12:39;;;;;;;30.05;26.95;;;5.40;99.90;;;;;;5110042;27;20027;-76
2024/01/18 09:15:05;;;;;;;27.90;25.10;;;5.40;99.90;;;;;;5115334;27;20031;-76
2024/01/18 09:17:32;;;;;;;32.90;27.70;;;5.40;99.90;;;;;;5117957;27;20036;-77
2024/01/18 09:19:58;;;;;;;31.88;28.58;;;5.40;99.90;;;;;;5116957;27;20023;-77
2024/01/18 09:22:26;;;;;;;33.13;28.13;;;5.50;99.90;;;;;;5117259;27;20406;-76
2024/01/18 09:24:52;;;;;;;31.65;28.13;;;5.50;99.90;;;;;;5117989;27;20502;-78
2024/01/18 09:27:18;;;;;;;32.17;28.45;;;5.50;99.90;;;;;;5111124;27;20019;-78
2024/01/18 09:29:44;;;;;;;31.67;28.48;;;5.60;99.90;;;;;;5116816;27;20088;-77
2024/01/18 09:32:09;;;;;;;32.45;29.10;;;5.60;99.90;;;;;;5120617;27;20027;-78
2024/01/18 09:34:35;;;;;;;38.17;29.67;;;5.70;99.90;;;;;;5110045;28;20425;-77
2024/01/18 09:37:02;;;;;;;32.33;28.77;;;5.70;99.90;;;;;;5112035;27;20062;-78
2024/01/18 09:39:28;;;;;;;32.28;29.08;;;5.70;99.90;;;;;;5122419;27;20494;-77
2024/01/18 09:41:55;;;;;;;30.55;27.55;;;5.80;99.90;;;;;;5119875;27;20043;-77
2024/01/18 09:44:25;;;;;;;31.02;27.70;;;5.80;99.90;;;;;;5123877;27;20031;-77
2024/01/18 09:46:53;;;;;;;31.52;28.13;;;5.90;99.90;;;;;;5129519;27;20103;-78
2024/01/18 09:49:18;;;;;;;29.75;26.85;;;5.90;99.90;;;;;;5134019;27;20023;-78
2024/01/18 09:51:45;;;;;;;31.45;28.25;;;5.90;99.90;;;;;;5125154;27;20027;-77
2024/01/18 09:54:11;;;;;;;30.20;27.15;;;5.90;99.90;;;;;;5126250;27;20052;-77
2024/01/18 09:56:44;;;;;;;32.10;28.80;;;5.90;99.90;;;;;;5117047;27;20078;-77
2024/01/18 09:59:14;;;;;;;29.55;26.65;;;6.00;99.90;;;;;;5114110;27;20023;-78
2024/01/18 10:01:40;;;;;;;30.65;27.55;;;6.00;99.90;;;;;;5118636;27;20499;-77
2024/01/18 10:04:08;;;;;;;31.48;27.77;;;6.00;99.90;;;;;;5116311;27;20019;-77
2024/01/18 10:06:34;;;;;;;30.92;27.65;;;6.10;99.90;;;;;;5113228;27;20024;-78
2024/01/18 10:09:00;;;;;;;27.65;24.85;;;6.10;99.90;;;;;;5112394;27;20030;-76
2024/01/18 10:11:25;;;;;;;28.92;25.92;;;6.10;99.90;;;;;;5121291;27;20026;-75
2024/01/18 10:13:56;;;;;;;27.10;24.40;;;6.20;99.90;;;;;;5113001;27;20027;-74
2024/01/18 10:16:33;;;;;;;27.17;23.50;;;6.20;99.90;;;;;;5119079;27;20390;-75
2024/01/18 10:19:01;;;;;;;25.13;22.63;;;6.30;99.90;;;;;;5111585;27;20030;-79
2024/01/18 10:21:28;;;;;;;26.58;23.95;;;6.40;99.90;;;;;;5120687;27;20122;-77
2024/01/18 10:23:54;;;;;;;24.60;22.17;;;6.40;99.90;;;;;;5113148;27;20054;-78
2024/01/18 10:26:29;;;;;;;25.33;22.67;;;6.50;99.90;;;;;;5118510;27;20029;-78
2024/01/18 10:28:55;;;;;;;25.20;22.80;;;6.50;99.90;;;;;;5113383;27;20033;-78
2024/01/18 10:31:21;;;;;;;27.27;24.58;;;6.60;99.90;;;;;;5114035;27;20106;-78
2024/01/18 10:33:46;;;;;;;24.65;22.15;;;6.70;99.90;;;;;;5113221;27;20160;-78
2024/01/18 10:36:13;;;;;;;26.48;23.88;;;6.70;99.90;;;;;;5118156;27;20064;-78
2024/01/18 10:38:39;;;;;;;23.98;21.65;;;6.70;99.90;;;;;;5109847;27;20419;-80
2024/01/18 10:41:07;;;;;;;26.20;23.50;;;6.80;99.90;;;;;;5119763;27;20058;-80
2024/01/18 10:43:34;;;;;;;25.67;23.13;;;6.80;99.90;;;;;;5111554;27;20034;-79
2024/01/18 10:46:01;;;;;;;25.23;22.55;;;6.80;99.90;;;;;;5115217;27;20023;-77
2024/01/18 10:48:27;;;;;;;25.70;23.00;;;6.80;99.90;;;;;;5112598;27;20033;-78
2024/01/18 10:50:57;;;;;;;25.05;22.50;;;6.90;99.90;;;;;;5117259;27;20049;-80
2024/01/18 10:53:29;;;;;;;25.23;22.38;;;6.90;99.90;;;;;;5113649;27;20027;-79
2024/01/18 10:55:55;;;;;;;24.65;22.35;;;7.00;99.90;;;;;;5117795;27;20106;-78
2024/01/18 10:58:21;;;;;;;25.08;22.52;;;7.00;99.90;;;;;;5115149;27;20118;-79
2024/01/18 11:00:47;;;;;;;24.70;22.20;;;7.10;99.90;;;;;;5116355;27;20435;-79
2024/01/18 11:03:15;;;;;;;22.63;20.25;;;7.10;99.90;;;;;;5106086;27;20023;-79
2024/01/18 11:05:45;;;;;;;23.48;21.17;;;7.20;99.90;;;;;;5120695;27;20238;-78
2024/01/18 11:08:14;;;;;;;23.38;21.15;;;7.20;99.90;;;;;;5108738;27;20031;-78
2024/01/18 11:10:42;;;;;;;22.05;19.90;;;7.30;99.90;;;;;;5114086;27;20027;-78
2024/01/18 11:13:09;;;;;;;22.38;20.23;;;7.40;99.90;;;;;;5114448;27;20051;-78
2024/01/18 11:15:37;;;;;;;23.95;21.50;;;7.40;99.90;;;;;;5113650;27;20491;-78
2024/01/18 11:18:11;;;;;;;22.75;20.45;;;7.50;99.90;;;;;;5111209;27;20043;-78
2024/01/18 11:21:04;;;;;;;23.80;21.27;;;7.60;99.90;;;;;;5119567;27;20038;-78
2024/01/18 11:23:34;;;;;;;23.15;20.63;;;7.70;99.90;;;;;;5099183;27;20050;-78
2024/01/18 11:26:05;;;;;;;24.48;20.92;;;7.70;99.90;;;;;;5116726;27;20027;-78
2024/01/18 11:28:32;;;;;;;22.33;20.13;;;7.90;99.90;;;;;;5109737;27;20501;-75
2024/01/18 11:30:59;;;;;;;23.77;21.10;;;7.90;99.90;;;;;;5116667;27;20031;-78
2024/01/18 11:33:25;;;;;;;21.65;19.35;;;8.00;99.90;;;;;;5113056;27;20046;-78
2024/01/18 11:35:53;;;;;;;23.92;20.77;;;8.10;99.90;;;;;;5112942;27;20259;-78
2024/01/18 11:38:19;;;;;;;22.45;20.15;;;8.20;99.90;;;;;;5106219;27;20026;-78
2024/01/18 11:40:46;;;;;;;22.90;19.73;;;8.30;99.90;;;;;;5114643;27;20031;-78
2024/01/18 11:43:12;;;;;;;22.77;19.80;;;8.30;99.90;;;;;;5112391;27;20023;-79
2024/01/18 11:45:38;;;;;;;26.55;22.85;;;8.40;99.90;;;;;;5117011;27;20030;-79
2024/01/18 11:48:04;;;;;;;23.08;20.77;;;8.40;99.90;;;;;;5116919;27;20020;-78
2024/01/18 11:50:30;;;;;;;21.45;19.25;;;8.50;99.90;;;;;;5116889;27;21481;-78
2024/01/18 11:53:00;;;;;;;23.95;21.55;;;8.40;99.90;;;;;;5118855;27;20017;-78
2024/01/18 11:55:30;;;;;;;21.90;19.75;;;8.40;99.90;;;;;;5108078;27;20505;-77
2024/01/18 11:57:57;;;;;;;24.45;21.95;;;8.40;99.90;;;;;;5114229;27;20058;-77
2024/01/18 12:00:22;;;;;;;26.10;23.35;;;8.40;99.90;;;;;;5114420;27;20090;-78
2024/01/18 12:02:48;;;;;;;36.58;27.60;;;8.40;99.90;;;;;;5110101;28;20058;-78
2024/01/18 12:05:15;;;;;;;32.95;26.95;;;8.40;99.90;;;;;;5113987;28;20036;-79
2024/01/18 12:07:43;;;;;;;27.90;22.88;;;8.40;99.90;;;;;;5108276;27;20040;-78
2024/01/18 12:10:14;;;;;;;26.20;23.48;;;8.40;99.90;;;;;;5110858;28;20072;-80
2024/01/18 12:12:41;;;;;;;24.48;21.98;;;8.40;99.90;;;;;;5115020;27;20050;-78
2024/01/18 12:15:08;;;;;;;26.75;23.15;;;8.40;99.90;;;;;;5105161;28;20422;-78
2024/01/18 12:17:34;;;;;;;31.40;24.95;;;8.40;99.90;;;;;;5105216;28;20055;-76
2024/01/18 12:20:00;;;;;;;26.83;23.83;;;8.50;99.90;;;;;;5110052;28;20023;-76
2024/01/18 12:22:26;;;;;;;27.00;24.10;;;8.50;99.90;;;;;;5114516;28;20035;-76
2024/01/18 12:24:52;;;;;;;26.80;23.98;;;8.60;99.90;;;;;;5113934;28;20087;-76
2024/01/18 12:27:19;;;;;;;29.45;25.02;;;8.60;99.90;;;;;;5121617;28;20163;-76
2024/01/18 12:29:45;;;;;;;28.73;25.17;;;8.70;99.90;;;;;;5117773;28;20035;-76
2024/01/18 12:32:11;;;;;;;33.03;26.90;;;8.70;99.90;;;;;;5117677;28;20019;-76
2024/01/18 12:34:37;;;;;;;33.83;28.10;;;8.80;99.90;;;;;;5103189;28;20065;-76
2024/01/18 12:37:04;;;;;;;41.90;30.58;;;8.80;99.90;;;;;;5117471;28;20513;-76